createdAt,value
2018-04-19T04:01:33.102Z,8.93
2018-04-19T04:03:59.337Z,9.07
2018-04-19T04:06:25.537Z,10.00
2018-04-19T04:08:51.762Z,9.47
2018-04-19T04:11:17.931Z,9.23
2018-04-19T04:13:44.144Z,9.43
2018-04-19T04:16:28.793Z,9.37
2018-04-19T04:19:13.490Z,9.17
2018-04-19T04:21:58.183Z,10.40
2018-04-19T04:24:25.175Z,10.53
2018-04-19T04:26:52.116Z,11.47
2018-04-19T04:29:18.359Z,11.00
2018-04-19T04:31:44.555Z,12.57
2018-04-19T04:34:10.775Z,11.40
2018-04-19T04:36:37.707Z,12.23
2018-04-19T04:39:04.675Z,11.97
2018-04-19T04:41:30.883Z,12.63
2018-04-19T04:43:57.853Z,12.20
2018-04-19T04:46:24.105Z,12.83
2018-04-19T04:48:50.286Z,12.87
2018-04-19T04:51:17.236Z,13.90
2018-04-19T04:53:44.303Z,14.10
2018-04-19T04:56:10.506Z,13.40
2018-04-19T04:58:37.438Z,12.30
2018-04-19T05:01:03.632Z,13.20
2018-04-19T05:03:29.810Z,11.20
2018-04-19T05:05:56.774Z,11.70
2018-04-19T05:08:22.982Z,12.63
2018-04-19T05:10:49.914Z,12.33
2018-04-19T05:13:16.121Z,11.60
2018-04-19T05:15:42.321Z,12.43
2018-04-19T05:18:08.518Z,11.70
2018-04-19T05:20:35.451Z,13.20
2018-04-19T05:23:01.670Z,13.80
2018-04-19T05:25:27.856Z,12.83
2018-04-19T05:27:54.174Z,13.43
2018-04-19T05:30:20.389Z,12.53
2018-04-19T05:32:47.310Z,12.83
2018-04-19T05:35:13.497Z,13.00
2018-04-19T05:37:39.695Z,12.23
2018-04-19T05:40:06.626Z,12.80
2018-04-19T05:42:33.571Z,11.37
2018-04-19T05:45:00.586Z,11.40
2018-04-19T05:47:26.770Z,12.83
2018-04-19T05:49:52.954Z,13.40
2018-04-19T05:52:19.139Z,12.80
2018-04-19T05:54:45.330Z,12.03
2018-04-19T05:57:12.305Z,11.00
2018-04-19T05:59:38.507Z,10.67
2018-04-19T06:02:05.435Z,11.57
2018-04-19T06:04:32.238Z,11.30
2018-04-19T06:06:58.613Z,10.27
2018-04-19T06:09:24.878Z,10.30
2018-04-19T06:11:55.140Z,11.87
2018-04-19T06:14:23.265Z,11.40
2018-04-19T06:17:09.912Z,11.80
2018-04-19T06:19:36.360Z,12.30
2018-04-19T06:22:02.806Z,11.13
2018-04-19T06:24:29.103Z,11.83
2018-04-19T06:26:55.289Z,11.47
2018-04-19T06:29:22.233Z,11.33
2018-04-19T06:31:49.230Z,10.23
2018-04-19T06:34:15.485Z,12.17
2018-04-19T06:36:41.682Z,11.97
2018-04-19T06:39:07.878Z,13.10
2018-04-19T06:41:34.837Z,13.50
2018-04-19T06:44:01.064Z,12.73
2018-04-19T06:46:27.274Z,11.97
2018-04-19T06:48:54.217Z,12.93
2018-04-19T06:51:21.224Z,10.80
2018-04-19T06:53:48.095Z,12.53
2018-04-19T06:56:14.289Z,14.03
2018-04-19T06:58:40.474Z,11.83
2018-04-19T07:01:07.419Z,13.30
2018-04-19T07:03:34.344Z,11.13
2018-04-19T07:06:00.551Z,11.90
2018-04-19T07:08:26.749Z,12.70
2018-04-19T07:10:52.950Z,12.17
2018-04-19T07:13:19.874Z,11.20
2018-04-19T07:15:46.819Z,12.97
2018-04-19T07:18:12.998Z,11.27
2018-04-19T07:20:39.217Z,12.20
2018-04-19T07:23:05.394Z,11.43
2018-04-19T07:25:31.599Z,10.80
2018-04-19T07:27:57.806Z,10.80
2018-04-19T07:30:24.010Z,10.57
2018-04-19T07:32:50.959Z,11.20
2018-04-19T07:35:17.890Z,10.70
2018-04-19T07:37:44.842Z,11.67
2018-04-19T07:40:11.770Z,10.93
2018-04-19T07:42:37.979Z,10.67
2018-04-19T07:45:04.175Z,10.90
2018-04-19T07:47:30.382Z,10.47
2018-04-19T07:49:56.579Z,10.43
2018-04-19T07:52:22.779Z,10.07
2018-04-19T07:54:48.953Z,11.60
2018-04-19T07:57:15.869Z,10.83
2018-04-19T07:59:42.046Z,9.30
2018-04-19T08:02:08.218Z,9.77
2018-04-19T08:04:34.402Z,10.80
2018-04-19T08:07:00.573Z,9.80
2018-04-19T08:09:26.766Z,8.70
2018-04-19T08:11:52.956Z,9.43
2018-04-19T08:14:19.143Z,9.37
2018-04-19T08:16:45.326Z,9.03
2018-04-19T08:19:12.255Z,8.40
2018-04-19T08:21:38.431Z,8.60
2018-04-19T08:24:04.618Z,9.57
2018-04-19T08:26:31.537Z,10.17
2018-04-19T08:28:57.725Z,8.97
2018-04-19T08:31:23.894Z,7.80
2018-04-19T08:33:50.098Z,9.10
2018-04-19T08:36:16.278Z,8.77
2018-04-19T08:38:42.467Z,7.97
2018-04-19T08:41:08.679Z,8.50
2018-04-19T08:43:34.879Z,8.77
2018-04-19T08:46:01.845Z,9.60
2018-04-19T08:48:28.098Z,8.17
2018-04-19T08:50:54.290Z,9.30
2018-04-19T08:53:20.469Z,8.20
2018-04-19T08:55:46.662Z,8.90
2018-04-19T08:58:12.884Z,8.43
2018-04-19T09:00:39.077Z,8.40
2018-04-19T09:03:05.998Z,7.80
2018-04-19T09:05:32.193Z,7.77
2018-04-19T09:07:59.263Z,7.93
2018-04-19T09:10:25.451Z,7.20
2018-04-19T09:12:51.631Z,7.40
2018-04-19T09:15:17.823Z,7.20
2018-04-19T09:17:44.014Z,6.33
2018-04-19T09:20:10.946Z,6.83
2018-04-19T09:22:37.150Z,5.83
2018-04-19T09:25:03.327Z,5.47
2018-04-19T09:27:30.259Z,7.13
2018-04-19T09:29:57.206Z,6.43
2018-04-19T09:32:24.128Z,6.10
2018-04-19T09:34:50.318Z,5.20
2018-04-19T09:37:16.495Z,5.90
2018-04-19T09:39:42.670Z,6.00
2018-04-19T09:42:08.849Z,5.77
2018-04-19T09:44:35.038Z,6.60
2018-04-19T09:47:01.958Z,6.10
2018-04-19T09:49:28.135Z,5.50
2018-04-19T09:51:54.377Z,8.20
2018-04-19T09:54:20.558Z,6.33
2018-04-19T09:56:46.727Z,6.30
2018-04-19T09:59:12.911Z,6.93
2018-04-19T10:01:45.142Z,5.27
2018-04-19T10:04:13.076Z,5.60
2018-04-19T10:06:39.303Z,4.53
2018-04-19T10:09:05.507Z,4.43
2018-04-19T10:11:32.436Z,4.87
2018-04-19T10:13:58.642Z,5.47
2018-04-19T10:16:25.586Z,4.40
2018-04-19T10:18:52.546Z,4.10
2018-04-19T10:21:19.567Z,4.40
2018-04-19T10:23:45.758Z,4.40
2018-04-19T10:26:11.955Z,3.80
2018-04-19T10:28:38.180Z,4.10
2018-04-19T10:31:05.131Z,4.00
2018-04-19T10:33:32.093Z,3.87
2018-04-19T10:35:58.330Z,4.10
2018-04-19T10:38:24.561Z,4.00
2018-04-19T10:40:50.783Z,3.80
2018-04-19T10:43:17.135Z,3.37
2018-04-19T10:45:43.367Z,3.80
2018-04-19T10:48:09.610Z,3.80
2018-04-19T10:50:35.845Z,3.20
2018-04-19T10:53:02.093Z,3.23
2018-04-19T10:55:29.100Z,3.40
2018-04-19T10:57:55.534Z,2.97
2018-04-19T11:00:21.782Z,3.17
2018-04-19T11:02:48.007Z,2.87
2018-04-19T11:05:14.267Z,2.80
2018-04-19T11:07:41.345Z,2.70
2018-04-19T11:10:07.593Z,2.90
2018-04-19T11:12:34.859Z,3.00
2018-04-19T11:15:01.096Z,3.13
2018-04-19T11:17:27.381Z,3.27
2018-04-19T11:19:54.361Z,2.93
2018-04-19T11:22:20.650Z,2.63
2018-04-19T11:24:46.920Z,2.87
2018-04-19T11:27:13.209Z,2.80
2018-04-19T11:29:40.111Z,2.30
2018-04-19T11:32:06.407Z,2.00
2018-04-19T11:34:32.679Z,2.57
2018-04-19T11:36:58.960Z,2.70
2018-04-19T11:39:25.210Z,2.30
2018-04-19T11:41:51.501Z,2.73
2018-04-19T11:44:17.774Z,2.70
2018-04-19T11:46:44.055Z,2.30
2018-04-19T11:49:11.060Z,2.33
2018-04-19T11:51:39.753Z,2.23
2018-04-19T11:54:06.116Z,2.67
2018-04-19T11:56:32.408Z,2.30
2018-04-19T11:58:58.732Z,1.80
2018-04-19T12:01:25.199Z,1.70
2018-04-19T12:03:51.586Z,1.92
2018-04-19T12:06:17.933Z,2.03
2018-04-19T12:08:46.486Z,2.03
2018-04-19T12:11:12.953Z,2.93
2018-04-19T12:13:39.378Z,2.00
2018-04-19T12:16:05.712Z,1.83
2018-04-19T12:18:32.358Z,1.50
2018-04-19T12:20:58.727Z,1.80
2018-04-19T12:23:25.043Z,1.63
2018-04-19T12:25:51.338Z,1.70
2018-04-19T12:28:17.694Z,1.70
2018-04-19T12:30:44.040Z,1.50
2018-04-19T12:33:10.426Z,1.90
2018-04-19T12:35:36.711Z,2.00
2018-04-19T12:38:03.767Z,2.03
2018-04-19T12:40:41.130Z,2.10
2018-04-19T12:43:08.580Z,2.00
2018-04-19T12:45:34.848Z,2.10
2018-04-19T12:48:01.872Z,2.23
2018-04-19T12:50:28.195Z,1.60
2018-04-19T12:52:55.014Z,1.70
2018-04-19T12:55:21.316Z,1.90
2018-04-19T12:57:47.588Z,1.73
2018-04-19T13:00:13.857Z,1.93
2018-04-19T13:02:40.913Z,1.90
2018-04-19T13:05:07.502Z,1.97
2018-04-19T13:07:34.506Z,2.20
2018-04-19T13:10:00.788Z,2.10
2018-04-19T13:12:27.064Z,2.28
2018-04-19T13:14:53.346Z,2.37
2018-04-19T13:17:19.629Z,2.40
2018-04-19T13:19:45.906Z,1.98
2018-04-19T13:22:12.344Z,2.10
2018-04-19T13:24:38.643Z,2.33
2018-04-19T13:27:04.938Z,2.65
2018-04-19T13:29:32.123Z,2.70
2018-04-19T13:31:58.390Z,3.07
2018-04-19T13:34:24.703Z,2.83
2018-04-19T13:36:51.023Z,2.75
2018-04-19T13:39:18.541Z,2.12
2018-04-19T13:41:49.844Z,2.50
2018-04-19T13:44:19.757Z,2.40
2018-04-19T13:46:45.983Z,2.70
2018-04-19T13:49:12.206Z,3.37
2018-04-19T13:51:38.441Z,2.60
2018-04-19T13:54:04.698Z,3.30
2018-04-19T13:56:31.012Z,2.90
2018-04-19T13:58:57.235Z,3.20
2018-04-19T14:01:23.639Z,3.13
2018-04-19T14:03:49.881Z,3.37
2018-04-19T14:06:16.105Z,3.23
2018-04-19T14:08:43.322Z,3.47
2018-04-19T14:11:10.278Z,4.30
2018-04-19T14:13:37.206Z,3.40
2018-04-19T14:16:04.171Z,3.33
2018-04-19T14:18:31.157Z,3.70
2018-04-19T14:20:57.306Z,3.53
2018-04-19T14:23:23.535Z,4.67
2018-04-19T14:25:49.726Z,4.33
2018-04-19T14:28:15.914Z,4.40
2018-04-19T14:30:42.842Z,4.20
2018-04-19T14:33:09.026Z,4.03
2018-04-19T14:35:35.212Z,3.57
2018-04-19T14:38:02.203Z,4.00
2018-04-19T14:40:28.401Z,4.30
2018-04-19T14:42:55.355Z,4.00
2018-04-19T14:45:21.562Z,4.10
2018-04-19T14:47:48.559Z,3.57
2018-04-19T14:50:14.761Z,3.93
2018-04-19T14:52:40.973Z,4.20
2018-04-19T14:55:08.540Z,4.03
2018-04-19T14:57:35.530Z,4.73
2018-04-19T15:00:01.714Z,4.47
2018-04-19T15:02:28.765Z,4.77
2018-04-19T15:04:55.698Z,5.77
2018-04-19T15:07:23.187Z,4.77
2018-04-19T15:09:49.549Z,5.33
2018-04-19T15:12:16.465Z,5.60
2018-04-19T15:14:42.685Z,6.03
2018-04-19T15:17:08.910Z,5.70
2018-04-19T15:19:35.120Z,7.17
2018-04-19T15:22:02.029Z,6.43
2018-04-19T15:24:28.229Z,6.80
2018-04-19T15:26:54.421Z,7.83
2018-04-19T15:29:21.535Z,6.53
2018-04-19T15:31:47.732Z,6.93
2018-04-19T15:34:14.095Z,7.10
2018-04-19T15:36:40.271Z,6.20
2018-04-19T15:39:07.218Z,3.80
2018-04-19T15:41:34.309Z,5.27
2018-04-19T15:44:00.484Z,5.80
2018-04-19T15:46:27.421Z,6.20
2018-04-19T15:48:54.455Z,5.80
2018-04-19T15:51:20.649Z,6.17
2018-04-19T15:53:46.836Z,6.63
2018-04-19T15:56:13.792Z,6.30
2018-04-19T15:58:39.978Z,6.97
2018-04-19T16:01:06.181Z,6.90
2018-04-19T16:03:32.389Z,6.70
2018-04-19T16:05:58.587Z,8.13
2018-04-19T16:08:25.506Z,6.40
2018-04-19T16:10:51.751Z,5.50
2018-04-19T16:13:17.945Z,5.13
2018-04-19T16:15:44.174Z,4.73
2018-04-19T16:18:10.372Z,4.40
2018-04-19T16:20:36.574Z,4.93
2018-04-19T16:23:03.589Z,4.60
2018-04-19T16:25:29.761Z,5.00
2018-04-19T16:27:56.698Z,5.23
2018-04-19T16:30:23.726Z,4.80
2018-04-19T16:32:49.910Z,4.90
2018-04-19T16:35:16.117Z,4.17
2018-04-19T16:37:43.069Z,4.40
2018-04-19T16:40:09.251Z,4.53
2018-04-19T16:42:35.522Z,4.00
2018-04-19T16:45:01.731Z,3.90
2018-04-19T16:47:28.713Z,4.20
2018-04-19T16:49:55.603Z,4.43
2018-04-19T16:52:21.792Z,5.23
2018-04-19T16:54:47.974Z,6.80
2018-04-19T16:57:14.174Z,6.83
2018-04-19T16:59:40.369Z,7.43
2018-04-19T17:02:06.575Z,9.20
2018-04-19T17:04:33.538Z,10.03
2018-04-19T17:06:59.713Z,9.00
2018-04-19T17:09:25.922Z,9.90
2018-04-19T17:11:52.097Z,9.03
2018-04-19T17:14:19.014Z,8.90
2018-04-19T17:16:45.195Z,8.20
2018-04-19T17:19:11.390Z,8.20
2018-04-19T17:21:38.314Z,7.40
2018-04-19T17:24:04.519Z,7.27
2018-04-19T17:26:30.689Z,8.00
2018-04-19T17:28:57.646Z,8.53
2018-04-19T17:31:24.568Z,8.00
2018-04-19T17:33:50.743Z,8.27
2018-04-19T17:36:16.918Z,7.70
2018-04-19T17:38:43.131Z,7.53
2018-04-19T17:41:09.302Z,7.33
2018-04-19T17:43:36.230Z,8.63
2018-04-19T17:46:02.416Z,8.30
2018-04-19T17:48:28.604Z,8.37
2018-04-19T17:50:55.526Z,7.57
2018-04-19T17:53:21.707Z,9.17
2018-04-19T17:55:47.886Z,8.43
2018-04-19T17:58:14.072Z,7.10
2018-04-19T18:00:40.312Z,7.10
2018-04-19T18:03:06.482Z,6.73
2018-04-19T18:05:33.442Z,6.97
2018-04-19T18:08:00.355Z,6.03
2018-04-19T18:10:26.537Z,6.27
2018-04-19T18:12:52.791Z,6.83
2018-04-19T18:15:19.010Z,6.77
2018-04-19T18:17:45.195Z,6.20
2018-04-19T18:20:12.114Z,6.27
2018-04-19T18:22:39.525Z,6.23
2018-04-19T18:25:05.737Z,6.77
2018-04-19T18:27:31.918Z,5.43
2018-04-19T18:29:58.094Z,5.70
2018-04-19T18:32:24.289Z,6.00
2018-04-19T18:34:50.466Z,6.60
2018-04-19T18:37:16.715Z,5.90
2018-04-19T18:39:43.027Z,5.30
2018-04-19T18:42:09.226Z,5.53
2018-04-19T18:44:36.206Z,5.53
2018-04-19T18:47:02.409Z,5.00
2018-04-19T18:49:29.314Z,5.60
2018-04-19T18:51:55.523Z,5.90
2018-04-19T18:54:21.709Z,4.80
2018-04-19T18:56:48.746Z,4.43
2018-04-19T18:59:15.662Z,5.10
2018-04-19T19:01:41.855Z,6.17
2018-04-19T19:04:08.800Z,7.00
2018-04-19T19:06:34.994Z,7.60
2018-04-19T19:09:02.003Z,6.33
2018-04-19T19:11:28.183Z,5.90
2018-04-19T19:13:54.404Z,6.10
2018-04-19T19:16:20.546Z,5.33
2018-04-19T19:19:05.390Z,5.67
2018-04-19T19:21:32.319Z,4.90
2018-04-19T19:23:58.535Z,5.20
2018-04-19T19:26:25.157Z,5.57
2018-04-19T19:28:51.346Z,5.50
2018-04-19T19:31:17.535Z,5.80
2018-04-19T19:33:43.726Z,5.07
2018-04-19T19:36:09.903Z,5.27
2018-04-19T19:38:37.069Z,5.67
2018-04-19T19:41:03.971Z,5.80
2018-04-19T19:43:30.162Z,5.73
2018-04-19T19:45:56.401Z,5.50
2018-04-19T19:48:22.579Z,5.20
2018-04-19T19:50:48.768Z,6.53
2018-04-19T19:53:16.668Z,6.50
2018-04-19T19:55:42.851Z,6.80
2018-04-19T19:58:09.038Z,7.17
2018-04-19T20:00:36.051Z,7.33
2018-04-19T20:03:02.221Z,7.30
2018-04-19T20:05:29.136Z,7.67
2018-04-19T20:07:55.322Z,8.30
2018-04-19T20:10:21.722Z,8.13
2018-04-19T20:12:48.646Z,8.40
2018-04-19T20:15:14.836Z,7.13
2018-04-19T20:17:41.058Z,7.50
2018-04-19T20:20:07.235Z,9.17
2018-04-19T20:22:33.437Z,10.30
2018-04-19T20:24:59.661Z,9.10
2018-04-19T20:27:25.863Z,7.90
2018-04-19T20:29:52.045Z,7.87
2018-04-19T20:32:18.230Z,6.60
2018-04-19T20:34:44.577Z,8.27
2018-04-19T20:37:10.757Z,5.77
2018-04-19T20:39:37.702Z,6.30
2018-04-19T20:42:04.646Z,5.77
2018-04-19T20:44:31.577Z,5.60
2018-04-19T20:46:57.803Z,6.60
2018-04-19T20:49:23.986Z,6.50
2018-04-19T20:51:50.173Z,6.03
2018-04-19T20:54:17.113Z,5.57
2018-04-19T20:56:43.299Z,5.27
2018-04-19T20:59:09.494Z,6.80
2018-04-19T21:01:36.262Z,6.87
2018-04-19T21:04:02.462Z,6.53
2018-04-19T21:06:28.756Z,5.87
2018-04-19T21:08:55.717Z,6.50
2018-04-19T21:11:22.641Z,5.73
2018-04-19T21:13:48.826Z,5.97
2018-04-19T21:16:15.038Z,6.30
2018-04-19T21:18:41.952Z,6.00
2018-04-19T21:21:08.159Z,5.97
2018-04-19T21:23:35.697Z,5.93
2018-04-19T21:26:04.741Z,6.90
2018-04-19T21:28:31.730Z,6.70
2018-04-19T21:30:57.915Z,5.80
2018-04-19T21:33:24.417Z,4.83
2018-04-19T21:36:02.709Z,5.10
2018-04-19T21:38:30.266Z,5.90
2018-04-19T21:40:56.474Z,5.50
2018-04-19T21:43:23.394Z,6.27
2018-04-19T21:45:49.594Z,7.00
2018-04-19T21:48:15.814Z,7.07
2018-04-19T21:50:41.990Z,6.23
2018-04-19T21:53:09.084Z,7.50
2018-04-19T21:55:35.259Z,7.57
2018-04-19T21:58:01.446Z,7.43
2018-04-19T22:00:27.781Z,7.03
2018-04-19T22:02:53.958Z,6.73
2018-04-19T22:05:20.881Z,8.00
2018-04-19T22:07:47.066Z,7.20
2018-04-19T22:10:13.246Z,7.80
2018-04-19T22:12:39.446Z,7.20
2018-04-19T22:15:05.650Z,7.53
2018-04-19T22:17:31.842Z,6.37
2018-04-19T22:19:58.762Z,5.97
2018-04-19T22:22:25.227Z,5.60
2018-04-19T22:24:52.851Z,7.23
2018-04-19T22:27:19.879Z,6.90
2018-04-19T22:29:46.338Z,6.37
2018-04-19T22:32:12.797Z,6.90
2018-04-19T22:34:39.721Z,7.43
2018-04-19T22:37:05.894Z,6.27
2018-04-19T22:39:32.110Z,6.97
2018-04-19T22:41:59.026Z,6.40
2018-04-19T22:44:25.214Z,6.60
2018-04-19T22:46:51.467Z,6.57
2018-04-19T22:49:17.607Z,6.70
2018-04-19T22:51:44.474Z,5.60
2018-04-19T22:54:11.427Z,5.80
2018-04-19T22:56:38.378Z,6.50
2018-04-19T22:59:05.385Z,7.60
2018-04-19T23:01:31.577Z,6.97
2018-04-19T23:03:57.772Z,6.70
2018-04-19T23:06:24.711Z,6.40
2018-04-19T23:08:51.619Z,6.00
2018-04-19T23:11:17.826Z,6.27
2018-04-19T23:13:44.015Z,6.13
2018-04-19T23:16:10.998Z,7.20
2018-04-19T23:18:37.170Z,6.60
2018-04-19T23:21:03.363Z,5.67
2018-04-19T23:23:29.567Z,6.33
2018-04-19T23:25:55.812Z,7.17
2018-04-19T23:28:22.011Z,5.50
2018-04-19T23:30:49.770Z,6.30
2018-04-19T23:33:16.685Z,6.40
2018-04-19T23:35:42.877Z,5.43
2018-04-19T23:38:09.066Z,5.70
2018-04-19T23:40:35.250Z,6.43
2018-04-19T23:43:01.446Z,7.30
2018-04-19T23:45:27.624Z,6.80
2018-04-19T23:47:53.803Z,6.30
2018-04-19T23:50:19.985Z,6.97
2018-04-19T23:52:46.178Z,6.40
2018-04-19T23:55:12.366Z,6.40
2018-04-19T23:57:39.278Z,6.50
